sensor_id;sensor_type;location;lat;lon;timestamp;P1;durP1;ratioP1;P2;durP2;ratioP2
30458;SDS011;17254;50.976;7.034;2023-04-16T00:00:07;63.16;;;31.94;;
30458;SDS011;17254;50.976;7.034;2023-04-16T00:00:16;66.50;;;33.33;;
30458;SDS011;17254;50.976;7.034;2023-04-16T00:00:22;70.17;;;35.17;;
30458;SDS011;17254;50.976;7.034;2023-04-16T00:00:29;72.43;;;36.50;;
30458;SDS011;17254;50.976;7.034;2023-04-16T00:00:35;72.30;;;37.38;;
30458;SDS011;17254;50.976;7.034;2023-04-16T00:00:41;72.93;;;38.53;;
30458;SDS011;17254;50.976;7.034;2023-04-16T00:00:47;72.00;;;38.60;;
30458;SDS011;17254;50.976;7.034;2023-04-16T00:00:53;71.30;;;39.40;;
30458;SDS011;17254;50.976;7.034;2023-04-16T00:00:59;71.43;;;40.65;;
30458;SDS011;17254;50.976;7.034;2023-04-16T00:01:05;71.38;;;40.55;;
30458;SDS011;17254;50.976;7.034;2023-04-16T00:01:11;69.05;;;39.55;;
30458;SDS011;17254;50.976;7.034;2023-04-16T00:01:17;68.85;;;39.47;;
30458;SDS011;17254;50.976;7.034;2023-04-16T00:01:23;68.13;;;38.70;;
30458;SDS011;17254;50.976;7.034;2023-04-16T00:01:29;65.82;;;36.90;;
30458;SDS011;17254;50.976;7.034;2023-04-16T00:01:35;65.07;;;35.65;;
30458;SDS011;17254;50.976;7.034;2023-04-16T00:01:40;66.30;;;35.40;;
30458;SDS011;17254;50.976;7.034;2023-04-16T00:01:46;68.00;;;36.42;;
30458;SDS011;17254;50.976;7.034;2023-04-16T00:01:52;68.32;;;37.00;;
30458;SDS011;17254;50.976;7.034;2023-04-16T00:02:00;68.37;;;36.43;;
30458;SDS011;17254;50.976;7.034;2023-04-16T00:02:06;68.90;;;36.90;;
30458;SDS011;17254;50.976;7.034;2023-04-16T00:02:12;68.77;;;37.60;;
30458;SDS011;17254;50.976;7.034;2023-04-16T00:02:18;68.46;;;36.94;;
30458;SDS011;17254;50.976;7.034;2023-04-16T00:02:25;69.85;;;36.90;;
30458;SDS011;17254;50.976;7.034;2023-04-16T00:02:31;70.93;;;38.17;;
30458;SDS011;17254;50.976;7.034;2023-04-16T00:02:37;70.68;;;38.03;;
30458;SDS011;17254;50.976;7.034;2023-04-16T00:02:43;69.05;;;36.95;;
30458;SDS011;17254;50.976;7.034;2023-04-16T00:02:49;66.65;;;35.88;;
30458;SDS011;17254;50.976;7.034;2023-04-16T00:02:55;65.27;;;34.90;;
30458;SDS011;17254;50.976;7.034;2023-04-16T00:03:01;65.20;;;33.90;;
30458;SDS011;17254;50.976;7.034;2023-04-16T00:03:07;63.85;;;33.13;;
30458;SDS011;17254;50.976;7.034;2023-04-16T00:03:13;62.28;;;31.38;;
30458;SDS011;17254;50.976;7.034;2023-04-16T00:03:19;57.38;;;29.67;;
30458;SDS011;17254;50.976;7.034;2023-04-16T00:03:26;56.32;;;28.80;;
30458;SDS011;17254;50.976;7.034;2023-04-16T00:03:32;53.60;;;27.98;;
30458;SDS011;17254;50.976;7.034;2023-04-16T00:03:38;51.10;;;27.43;;
30458;SDS011;17254;50.976;7.034;2023-04-16T00:03:43;51.25;;;27.65;;
30458;SDS011;17254;50.976;7.034;2023-04-16T00:03:50;57.60;;;29.58;;
30458;SDS011;17254;50.976;7.034;2023-04-16T00:03:55;59.22;;;29.90;;
30458;SDS011;17254;50.976;7.034;2023-04-16T00:04:01;63.95;;;31.35;;
30458;SDS011;17254;50.976;7.034;2023-04-16T00:04:07;67.80;;;32.08;;
30458;SDS011;17254;50.976;7.034;2023-04-16T00:04:13;68.72;;;32.70;;
30458;SDS011;17254;50.976;7.034;2023-04-16T00:04:19;64.53;;;31.27;;
30458;SDS011;17254;50.976;7.034;2023-04-16T00:04:25;62.53;;;30.75;;
30458;SDS011;17254;50.976;7.034;2023-04-16T00:04:31;59.08;;;30.75;;
30458;SDS011;17254;50.976;7.034;2023-04-16T00:04:37;59.50;;;31.48;;
30458;SDS011;17254;50.976;7.034;2023-04-16T00:04:43;59.95;;;31.88;;
30458;SDS011;17254;50.976;7.034;2023-04-16T00:04:50;60.56;;;32.22;;
30458;SDS011;17254;50.976;7.034;2023-04-16T00:04:55;62.23;;;33.37;;
30458;SDS011;17254;50.976;7.034;2023-04-16T00:05:01;63.58;;;33.50;;
30458;SDS011;17254;50.976;7.034;2023-04-16T00:05:08;62.16;;;33.32;;
30458;SDS011;17254;50.976;7.034;2023-04-16T00:05:14;63.67;;;33.70;;
30458;SDS011;17254;50.976;7.034;2023-04-16T00:05:20;65.93;;;34.63;;
30458;SDS011;17254;50.976;7.034;2023-04-16T00:05:26;66.72;;;34.85;;
30458;SDS011;17254;50.976;7.034;2023-04-16T00:05:31;66.63;;;35.33;;
30458;SDS011;17254;50.976;7.034;2023-04-16T00:05:37;67.38;;;35.30;;
30458;SDS011;17254;50.976;7.034;2023-04-16T00:05:43;66.50;;;35.70;;
30458;SDS011;17254;50.976;7.034;2023-04-16T00:05:49;65.43;;;36.10;;
30458;SDS011;17254;50.976;7.034;2023-04-16T00:05:55;64.67;;;35.87;;
30458;SDS011;17254;50.976;7.034;2023-04-16T00:06:01;67.47;;;35.43;;
30458;SDS011;17254;50.976;7.034;2023-04-16T00:06:09;68.14;;;35.38;;
30458;SDS011;17254;50.976;7.034;2023-04-16T00:06:15;68.77;;;35.03;;
30458;SDS011;17254;50.976;7.034;2023-04-16T00:06:21;69.82;;;35.50;;
30458;SDS011;17254;50.976;7.034;2023-04-16T00:06:27;70.60;;;36.13;;
30458;SDS011;17254;50.976;7.034;2023-04-16T00:06:32;70.20;;;36.95;;
30458;SDS011;17254;50.976;7.034;2023-04-16T00:06:38;69.97;;;36.30;;
30458;SDS011;17254;50.976;7.034;2023-04-16T00:06:44;69.53;;;35.80;;
30458;SDS011;17254;50.976;7.034;2023-04-16T00:06:50;67.28;;;34.63;;
30458;SDS011;17254;50.976;7.034;2023-04-16T00:06:56;65.10;;;33.40;;
30458;SDS011;17254;50.976;7.034;2023-04-16T00:07:02;64.50;;;33.13;;
30458;SDS011;17254;50.976;7.034;2023-04-16T00:07:08;62.50;;;32.73;;
30458;SDS011;17254;50.976;7.034;2023-04-16T00:07:13;62.58;;;32.97;;
30458;SDS011;17254;50.976;7.034;2023-04-16T00:07:19;65.03;;;33.97;;
30458;SDS011;17254;50.976;7.034;2023-04-16T00:07:26;65.03;;;33.90;;
30458;SDS011;17254;50.976;7.034;2023-04-16T00:07:32;62.67;;;32.95;;
30458;SDS011;17254;50.976;7.034;2023-04-16T00:07:38;63.72;;;33.30;;
30458;SDS011;17254;50.976;7.034;2023-04-16T00:07:45;63.33;;;33.83;;
30458;SDS011;17254;50.976;7.034;2023-04-16T00:07:50;61.72;;;33.72;;
30458;SDS011;17254;50.976;7.034;2023-04-16T00:07:57;63.65;;;34.67;;
30458;SDS011;17254;50.976;7.034;2023-04-16T00:08:02;64.20;;;34.70;;
30458;SDS011;17254;50.976;7.034;2023-04-16T00:08:08;64.80;;;34.75;;
30458;SDS011;17254;50.976;7.034;2023-04-16T00:08:14;63.47;;;33.10;;
30458;SDS011;17254;50.976;7.034;2023-04-16T00:08:20;61.97;;;31.30;;
30458;SDS011;17254;50.976;7.034;2023-04-16T00:08:28;60.18;;;30.32;;
30458;SDS011;17254;50.976;7.034;2023-04-16T00:08:34;61.30;;;31.23;;
30458;SDS011;17254;50.976;7.034;2023-04-16T00:08:41;59.33;;;31.50;;
30458;SDS011;17254;50.976;7.034;2023-04-16T00:08:48;60.66;;;32.38;;
30458;SDS011;17254;50.976;7.034;2023-04-16T00:08:55;60.42;;;32.84;;
30458;SDS011;17254;50.976;7.034;2023-04-16T00:09:01;60.00;;;30.52;;
30458;SDS011;17254;50.976;7.034;2023-04-16T00:09:07;59.38;;;28.90;;
30458;SDS011;17254;50.976;7.034;2023-04-16T00:09:13;59.00;;;29.23;;
30458;SDS011;17254;50.976;7.034;2023-04-16T00:09:19;59.63;;;29.33;;
30458;SDS011;17254;50.976;7.034;2023-04-16T00:09:25;60.30;;;29.38;;
30458;SDS011;17254;50.976;7.034;2023-04-16T00:09:30;59.30;;;30.95;;
30458;SDS011;17254;50.976;7.034;2023-04-16T00:09:36;57.72;;;31.13;;
30458;SDS011;17254;50.976;7.034;2023-04-16T00:09:42;58.67;;;31.08;;
30458;SDS011;17254;50.976;7.034;2023-04-16T00:09:48;59.58;;;31.88;;
30458;SDS011;17254;50.976;7.034;2023-04-16T00:09:54;60.47;;;31.70;;
30458;SDS011;17254;50.976;7.034;2023-04-16T00:10:00;62.40;;;32.17;;
30458;SDS011;17254;50.976;7.034;2023-04-16T00:10:06;63.70;;;33.00;;
30458;SDS011;17254;50.976;7.034;2023-04-16T00:10:13;63.66;;;32.80;;
30458;SDS011;17254;50.976;7.034;2023-04-16T00:10:20;64.06;;;32.66;;
30458;SDS011;17254;50.976;7.034;2023-04-16T00:10:26;64.32;;;33.22;;
30458;SDS011;17254;50.976;7.034;2023-04-16T00:10:33;61.93;;;32.97;;
30458;SDS011;17254;50.976;7.034;2023-04-16T00:10:38;62.22;;;33.35;;
30458;SDS011;17254;50.976;7.034;2023-04-16T00:10:45;63.35;;;34.42;;
30458;SDS011;17254;50.976;7.034;2023-04-16T00:10:51;62.65;;;34.75;;
30458;SDS011;17254;50.976;7.034;2023-04-16T00:10:57;62.40;;;35.10;;
30458;SDS011;17254;50.976;7.034;2023-04-16T00:11:05;61.42;;;34.22;;
30458;SDS011;17254;50.976;7.034;2023-04-16T00:11:11;60.50;;;33.02;;
30458;SDS011;17254;50.976;7.034;2023-04-16T00:11:17;60.17;;;32.33;;
30458;SDS011;17254;50.976;7.034;2023-04-16T00:11:23;58.40;;;30.30;;
30458;SDS011;17254;50.976;7.034;2023-04-16T00:11:29;57.78;;;30.80;;
30458;SDS011;17254;50.976;7.034;2023-04-16T00:11:34;58.33;;;31.08;;
30458;SDS011;17254;50.976;7.034;2023-04-16T00:11:40;59.90;;;32.78;;
30458;SDS011;17254;50.976;7.034;2023-04-16T00:11:47;61.17;;;34.70;;
30458;SDS011;17254;50.976;7.034;2023-04-16T00:11:53;63.50;;;36.80;;
30458;SDS011;17254;50.976;7.034;2023-04-16T00:11:59;64.43;;;36.58;;
30458;SDS011;17254;50.976;7.034;2023-04-16T00:12:05;64.97;;;37.13;;
30458;SDS011;17254;50.976;7.034;2023-04-16T00:12:11;65.20;;;36.90;;
30458;SDS011;17254;50.976;7.034;2023-04-16T00:12:17;65.13;;;35.47;;
30458;SDS011;17254;50.976;7.034;2023-04-16T00:12:23;64.38;;;34.95;;
30458;SDS011;17254;50.976;7.034;2023-04-16T00:12:29;64.65;;;35.35;;
30458;SDS011;17254;50.976;7.034;2023-04-16T00:12:35;65.38;;;35.80;;
30458;SDS011;17254;50.976;7.034;2023-04-16T00:12:41;63.70;;;35.40;;
30458;SDS011;17254;50.976;7.034;2023-04-16T00:12:47;62.00;;;35.23;;
30458;SDS011;17254;50.976;7.034;2023-04-16T00:12:53;62.67;;;34.90;;
30458;SDS011;17254;50.976;7.034;2023-04-16T00:12:59;63.22;;;35.00;;
30458;SDS011;17254;50.976;7.034;2023-04-16T00:13:05;63.40;;;34.95;;
30458;SDS011;17254;50.976;7.034;2023-04-16T00:13:11;65.80;;;35.75;;
30458;SDS011;17254;50.976;7.034;2023-04-16T00:13:17;68.73;;;36.63;;
30458;SDS011;17254;50.976;7.034;2023-04-16T00:13:23;70.55;;;38.03;;
30458;SDS011;17254;50.976;7.034;2023-04-16T00:13:31;71.40;;;39.05;;
30458;SDS011;17254;50.976;7.034;2023-04-16T00:13:37;72.30;;;39.78;;
30458;SDS011;17254;50.976;7.034;2023-04-16T00:13:43;71.40;;;39.72;;
30458;SDS011;17254;50.976;7.034;2023-04-16T00:13:49;70.95;;;40.03;;
30458;SDS011;17254;50.976;7.034;2023-04-16T00:13:55;68.88;;;39.03;;
30458;SDS011;17254;50.976;7.034;2023-04-16T00:14:00;69.38;;;38.97;;
30458;SDS011;17254;50.976;7.034;2023-04-16T00:14:06;69.37;;;38.53;;
30458;SDS011;17254;50.976;7.034;2023-04-16T00:14:12;70.57;;;38.63;;
30458;SDS011;17254;50.976;7.034;2023-04-16T00:14:18;71.35;;;38.42;;
30458;SDS011;17254;50.976;7.034;2023-04-16T00:14:24;71.93;;;39.55;;
30458;SDS011;17254;50.976;7.034;2023-04-16T00:14:30;75.20;;;40.22;;
30458;SDS011;17254;50.976;7.034;2023-04-16T00:14:36;76.15;;;40.95;;
30458;SDS011;17254;50.976;7.034;2023-04-16T00:14:42;76.53;;;40.97;;
30458;SDS011;17254;50.976;7.034;2023-04-16T00:14:48;75.97;;;40.75;;
30458;SDS011;17254;50.976;7.034;2023-04-16T00:14:55;76.47;;;40.27;;
30458;SDS011;17254;50.976;7.034;2023-04-16T00:15:01;73.40;;;39.00;;
30458;SDS011;17254;50.976;7.034;2023-04-16T00:15:07;70.78;;;37.83;;
30458;SDS011;17254;50.976;7.034;2023-04-16T00:15:13;69.95;;;37.30;;
30458;SDS011;17254;50.976;7.034;2023-04-16T00:15:19;70.35;;;36.95;;
30458;SDS011;17254;50.976;7.034;2023-04-16T00:15:25;69.35;;;35.67;;
30458;SDS011;17254;50.976;7.034;2023-04-16T00:15:31;68.78;;;35.55;;
30458;SDS011;17254;50.976;7.034;2023-04-16T00:15:37;68.93;;;35.45;;
30458;SDS011;17254;50.976;7.034;2023-04-16T00:15:43;66.80;;;34.83;;
30458;SDS011;17254;50.976;7.034;2023-04-16T00:15:48;65.97;;;34.55;;
30458;SDS011;17254;50.976;7.034;2023-04-16T00:15:55;64.57;;;34.57;;
30458;SDS011;17254;50.976;7.034;2023-04-16T00:16:00;65.17;;;34.83;;
30458;SDS011;17254;50.976;7.034;2023-04-16T00:16:07;66.42;;;34.88;;
30458;SDS011;17254;50.976;7.034;2023-04-16T00:16:12;66.77;;;34.87;;
30458;SDS011;17254;50.976;7.034;2023-04-16T00:16:19;65.93;;;35.13;;
30458;SDS011;17254;50.976;7.034;2023-04-16T00:16:26;67.20;;;35.97;;
30458;SDS011;17254;50.976;7.034;2023-04-16T00:16:32;67.18;;;36.24;;
30458;SDS011;17254;50.976;7.034;2023-04-16T00:16:38;65.97;;;36.17;;
30458;SDS011;17254;50.976;7.034;2023-04-16T00:16:44;63.70;;;35.28;;
30458;SDS011;17254;50.976;7.034;2023-04-16T00:16:50;61.45;;;33.90;;
30458;SDS011;17254;50.976;7.034;2023-04-16T00:16:55;59.95;;;33.28;;
30458;SDS011;17254;50.976;7.034;2023-04-16T00:17:01;58.00;;;32.25;;
30458;SDS011;17254;50.976;7.034;2023-04-16T00:17:07;57.13;;;31.58;;
30458;SDS011;17254;50.976;7.034;2023-04-16T00:17:13;57.80;;;31.52;;
30458;SDS011;17254;50.976;7.034;2023-04-16T00:17:19;58.25;;;32.13;;
30458;SDS011;17254;50.976;7.034;2023-04-16T00:17:25;56.20;;;31.00;;
30458;SDS011;17254;50.976;7.034;2023-04-16T00:17:31;55.40;;;30.98;;
30458;SDS011;17254;50.976;7.034;2023-04-16T00:17:37;56.83;;;31.65;;
30458;SDS011;17254;50.976;7.034;2023-04-16T00:17:43;56.83;;;31.60;;
30458;SDS011;17254;50.976;7.034;2023-04-16T00:17:49;55.20;;;30.20;;
30458;SDS011;17254;50.976;7.034;2023-04-16T00:17:56;54.63;;;29.57;;
30458;SDS011;17254;50.976;7.034;2023-04-16T00:18:01;55.27;;;29.23;;
30458;SDS011;17254;50.976;7.034;2023-04-16T00:18:07;53.83;;;29.00;;
30458;SDS011;17254;50.976;7.034;2023-04-16T00:18:13;55.03;;;29.83;;
30458;SDS011;17254;50.976;7.034;2023-04-16T00:18:19;54.15;;;30.73;;
30458;SDS011;17254;50.976;7.034;2023-04-16T00:18:25;54.53;;;31.52;;
30458;SDS011;17254;50.976;7.034;2023-04-16T00:18:31;53.50;;;31.73;;
30458;SDS011;17254;50.976;7.034;2023-04-16T00:18:37;55.25;;;31.55;;
30458;SDS011;17254;50.976;7.034;2023-04-16T00:18:43;55.17;;;31.20;;
30458;SDS011;17254;50.976;7.034;2023-04-16T00:18:49;56.78;;;31.27;;
30458;SDS011;17254;50.976;7.034;2023-04-16T00:18:55;56.93;;;31.03;;
30458;SDS011;17254;50.976;7.034;2023-04-16T00:19:01;57.47;;;30.77;;
30458;SDS011;17254;50.976;7.034;2023-04-16T00:19:07;55.90;;;30.05;;
30458;SDS011;17254;50.976;7.034;2023-04-16T00:19:14;55.84;;;30.86;;
30458;SDS011;17254;50.976;7.034;2023-04-16T00:19:19;56.05;;;31.42;;
30458;SDS011;17254;50.976;7.034;2023-04-16T00:19:25;57.20;;;31.90;;
30458;SDS011;17254;50.976;7.034;2023-04-16T00:19:31;57.28;;;31.90;;
30458;SDS011;17254;50.976;7.034;2023-04-16T00:19:37;56.60;;;32.30;;
30458;SDS011;17254;50.976;7.034;2023-04-16T00:19:43;54.30;;;31.38;;
30458;SDS011;17254;50.976;7.034;2023-04-16T00:19:49;53.10;;;30.67;;
30458;SDS011;17254;50.976;7.034;2023-04-16T00:19:55;52.27;;;30.60;;
30458;SDS011;17254;50.976;7.034;2023-04-16T00:20:00;52.70;;;31.00;;
30458;SDS011;17254;50.976;7.034;2023-04-16T00:20:07;52.80;;;30.88;;
30458;SDS011;17254;50.976;7.034;2023-04-16T00:20:13;55.44;;;30.60;;
30458;SDS011;17254;50.976;7.034;2023-04-16T00:20:19;55.05;;;30.45;;
30458;SDS011;17254;50.976;7.034;2023-04-16T00:20:25;53.73;;;30.17;;
30458;SDS011;17254;50.976;7.034;2023-04-16T00:20:31;53.53;;;30.67;;
30458;SDS011;17254;50.976;7.034;2023-04-16T00:20:37;53.70;;;31.07;;
30458;SDS011;17254;50.976;7.034;2023-04-16T00:20:44;52.76;;;31.74;;
30458;SDS011;17254;50.976;7.034;2023-04-16T00:20:50;54.17;;;32.13;;
30458;SDS011;17254;50.976;7.034;2023-04-16T00:20:56;57.33;;;32.38;;
30458;SDS011;17254;50.976;7.034;2023-04-16T00:21:02;57.78;;;31.67;;
30458;SDS011;17254;50.976;7.034;2023-04-16T00:21:08;56.72;;;31.13;;
30458;SDS011;17254;50.976;7.034;2023-04-16T00:21:14;58.13;;;30.75;;
30458;SDS011;17254;50.976;7.034;2023-04-16T00:21:20;59.00;;;29.93;;
30458;SDS011;17254;50.976;7.034;2023-04-16T00:21:26;57.50;;;29.17;;
30458;SDS011;17254;50.976;7.034;2023-04-16T00:21:32;58.37;;;28.40;;
30458;SDS011;17254;50.976;7.034;2023-04-16T00:21:38;59.17;;;28.77;;
30458;SDS011;17254;50.976;7.034;2023-04-16T00:21:44;58.50;;;28.63;;
30458;SDS011;17254;50.976;7.034;2023-04-16T00:21:50;58.73;;;28.67;;
30458;SDS011;17254;50.976;7.034;2023-04-16T00:21:55;57.72;;;28.30;;
30458;SDS011;17254;50.976;7.034;2023-04-16T00:22:01;54.55;;;28.02;;
30458;SDS011;17254;50.976;7.034;2023-04-16T00:22:08;53.33;;;27.40;;
30458;SDS011;17254;50.976;7.034;2023-04-16T00:22:14;51.47;;;26.90;;
30458;SDS011;17254;50.976;7.034;2023-04-16T00:22:20;50.47;;;27.60;;
30458;SDS011;17254;50.976;7.034;2023-04-16T00:22:26;50.65;;;28.50;;
30458;SDS011;17254;50.976;7.034;2023-04-16T00:22:32;52.47;;;29.42;;
30458;SDS011;17254;50.976;7.034;2023-04-16T00:22:38;52.80;;;29.70;;
30458;SDS011;17254;50.976;7.034;2023-04-16T00:22:43;52.95;;;30.35;;
30458;SDS011;17254;50.976;7.034;2023-04-16T00:22:49;51.17;;;30.13;;
30458;SDS011;17254;50.976;7.034;2023-04-16T00:22:55;51.07;;;29.97;;
30458;SDS011;17254;50.976;7.034;2023-04-16T00:23:01;48.96;;;29.86;;
30458;SDS011;17254;50.976;7.034;2023-04-16T00:23:07;48.67;;;30.00;;
30458;SDS011;17254;50.976;7.034;2023-04-16T00:23:13;49.78;;;30.13;;
30458;SDS011;17254;50.976;7.034;2023-04-16T00:23:19;53.25;;;30.55;;
30458;SDS011;17254;50.976;7.034;2023-04-16T00:23:25;54.63;;;30.58;;
30458;SDS011;17254;50.976;7.034;2023-04-16T00:23:31;55.75;;;30.50;;
30458;SDS011;17254;50.976;7.034;2023-04-16T00:23:38;56.44;;;30.26;;
30458;SDS011;17254;50.976;7.034;2023-04-16T00:23:44;56.00;;;30.30;;
30458;SDS011;17254;50.976;7.034;2023-04-16T00:23:50;53.23;;;29.70;;
30458;SDS011;17254;50.976;7.034;2023-04-16T00:23:56;51.88;;;29.27;;
30458;SDS011;17254;50.976;7.034;2023-04-16T00:24:02;52.30;;;29.40;;
30458;SDS011;17254;50.976;7.034;2023-04-16T00:24:08;51.83;;;29.30;;
30458;SDS011;17254;50.976;7.034;2023-04-16T00:24:14;51.10;;;29.20;;
30458;SDS011;17254;50.976;7.034;2023-04-16T00:24:20;51.28;;;29.33;;
30458;SDS011;17254;50.976;7.034;2023-04-16T00:24:26;52.63;;;30.17;;
30458;SDS011;17254;50.976;7.034;2023-04-16T00:24:32;53.17;;;30.27;;
30458;SDS011;17254;50.976;7.034;2023-04-16T00:24:38;53.55;;;30.67;;
30458;SDS011;17254;50.976;7.034;2023-04-16T00:24:44;53.15;;;30.52;;
30458;SDS011;17254;50.976;7.034;2023-04-16T00:24:50;54.13;;;30.58;;
30458;SDS011;17254;50.976;7.034;2023-04-16T00:24:55;52.50;;;29.70;;
30458;SDS011;17254;50.976;7.034;2023-04-16T00:25:01;51.97;;;30.47;;
30458;SDS011;17254;50.976;7.034;2023-04-16T00:25:08;52.03;;;30.23;;
30458;SDS011;17254;50.976;7.034;2023-04-16T00:25:14;51.05;;;29.70;;
30458;SDS011;17254;50.976;7.034;2023-04-16T00:25:20;50.60;;;29.57;;
30458;SDS011;17254;50.976;7.034;2023-04-16T00:25:26;51.83;;;30.27;;
30458;SDS011;17254;50.976;7.034;2023-04-16T00:25:33;51.27;;;29.77;;
30458;SDS011;17254;50.976;7.034;2023-04-16T00:25:38;51.00;;;29.70;;
30458;SDS011;17254;50.976;7.034;2023-04-16T00:25:44;51.42;;;29.33;;
30458;SDS011;17254;50.976;7.034;2023-04-16T00:25:50;51.63;;;29.08;;
30458;SDS011;17254;50.976;7.034;2023-04-16T00:25:57;51.70;;;29.10;;
30458;SDS011;17254;50.976;7.034;2023-04-16T00:26:05;51.97;;;28.30;;
30458;SDS011;17254;50.976;7.034;2023-04-16T00:26:11;52.00;;;28.52;;
30458;SDS011;17254;50.976;7.034;2023-04-16T00:26:20;53.91;;;29.58;;
30458;SDS011;17254;50.976;7.034;2023-04-16T00:26:26;54.30;;;29.80;;
30458;SDS011;17254;50.976;7.034;2023-04-16T00:26:32;54.20;;;29.67;;
30458;SDS011;17254;50.976;7.034;2023-04-16T00:26:38;54.27;;;29.80;;
30458;SDS011;17254;50.976;7.034;2023-04-16T00:26:45;52.87;;;29.60;;
30458;SDS011;17254;50.976;7.034;2023-04-16T00:26:52;52.83;;;29.43;;
30458;SDS011;17254;50.976;7.034;2023-04-16T00:26:58;53.63;;;29.80;;
30458;SDS011;17254;50.976;7.034;2023-04-16T00:27:05;54.73;;;29.87;;
30458;SDS011;17254;50.976;7.034;2023-04-16T00:27:11;56.25;;;30.18;;
30458;SDS011;17254;50.976;7.034;2023-04-16T00:27:17;59.57;;;31.20;;
30458;SDS011;17254;50.976;7.034;2023-04-16T00:27:23;58.74;;;31.60;;
30458;SDS011;17254;50.976;7.034;2023-04-16T00:27:29;58.15;;;32.15;;
30458;SDS011;17254;50.976;7.034;2023-04-16T00:27:35;55.78;;;32.63;;
30458;SDS011;17254;50.976;7.034;2023-04-16T00:27:41;53.53;;;32.60;;
30458;SDS011;17254;50.976;7.034;2023-04-16T00:27:47;52.25;;;32.03;;
30458;SDS011;17254;50.976;7.034;2023-04-16T00:27:52;52.40;;;31.75;;
30458;SDS011;17254;50.976;7.034;2023-04-16T00:27:58;53.75;;;32.22;;
30458;SDS011;17254;50.976;7.034;2023-04-16T00:28:04;57.03;;;33.08;;
30458;SDS011;17254;50.976;7.034;2023-04-16T00:28:10;59.22;;;33.10;;
30458;SDS011;17254;50.976;7.034;2023-04-16T00:28:16;58.47;;;33.20;;
30458;SDS011;17254;50.976;7.034;2023-04-16T00:28:23;57.78;;;33.34;;
30458;SDS011;17254;50.976;7.034;2023-04-16T00:28:29;57.03;;;32.33;;
30458;SDS011;17254;50.976;7.034;2023-04-16T00:28:35;55.45;;;31.25;;
30458;SDS011;17254;50.976;7.034;2023-04-16T00:28:41;55.67;;;31.15;;
30458;SDS011;17254;50.976;7.034;2023-04-16T00:28:47;55.72;;;30.80;;
30458;SDS011;17254;50.976;7.034;2023-04-16T00:28:53;54.60;;;29.00;;
30458;SDS011;17254;50.976;7.034;2023-04-16T00:28:59;52.63;;;27.23;;
30458;SDS011;17254;50.976;7.034;2023-04-16T00:29:05;50.20;;;25.93;;
30458;SDS011;17254;50.976;7.034;2023-04-16T00:29:11;47.40;;;24.65;;
30458;SDS011;17254;50.976;7.034;2023-04-16T00:29:17;45.65;;;23.83;;
30458;SDS011;17254;50.976;7.034;2023-04-16T00:29:23;46.05;;;24.75;;
30458;SDS011;17254;50.976;7.034;2023-04-16T00:29:29;46.55;;;25.25;;
30458;SDS011;17254;50.976;7.034;2023-04-16T00:29:35;47.83;;;25.67;;
30458;SDS011;17254;50.976;7.034;2023-04-16T00:29:42;49.30;;;26.37;;
30458;SDS011;17254;50.976;7.034;2023-04-16T00:29:47;52.03;;;27.42;;
30458;SDS011;17254;50.976;7.034;2023-04-16T00:29:53;51.53;;;28.00;;
30458;SDS011;17254;50.976;7.034;2023-04-16T00:29:59;51.10;;;28.85;;
30458;SDS011;17254;50.976;7.034;2023-04-16T00:30:06;50.47;;;28.97;;
30458;SDS011;17254;50.976;7.034;2023-04-16T00:30:12;49.66;;;29.24;;
30458;SDS011;17254;50.976;7.034;2023-04-16T00:30:18;47.72;;;28.85;;
30458;SDS011;17254;50.976;7.034;2023-04-16T00:30:24;49.42;;;28.10;;
30458;SDS011;17254;50.976;7.034;2023-04-16T00:30:30;50.67;;;27.77;;
30458;SDS011;17254;50.976;7.034;2023-04-16T00:30:35;51.93;;;28.50;;
30458;SDS011;17254;50.976;7.034;2023-04-16T00:30:41;53.05;;;29.60;;
30458;SDS011;17254;50.976;7.034;2023-04-16T00:30:47;54.38;;;30.23;;
30458;SDS011;17254;50.976;7.034;2023-04-16T00:30:54;54.30;;;31.30;;
30458;SDS011;17254;50.976;7.034;2023-04-16T00:31:01;55.30;;;32.68;;
30458;SDS011;17254;50.976;7.034;2023-04-16T00:31:07;55.23;;;32.73;;
30458;SDS011;17254;50.976;7.034;2023-04-16T00:31:13;54.67;;;32.03;;
30458;SDS011;17254;50.976;7.034;2023-04-16T00:31:24;53.70;;;31.70;;
30458;SDS011;17254;50.976;7.034;2023-04-16T00:31:32;51.61;;;30.69;;
30458;SDS011;17254;50.976;7.034;2023-04-16T00:31:38;48.80;;;28.65;;
30458;SDS011;17254;50.976;7.034;2023-04-16T00:31:44;48.13;;;27.98;;
30458;SDS011;17254;50.976;7.034;2023-04-16T00:31:50;48.70;;;27.73;;
30458;SDS011;17254;50.976;7.034;2023-04-16T00:31:56;50.87;;;27.40;;
30458;SDS011;17254;50.976;7.034;2023-04-16T00:32:02;51.97;;;27.75;;
30458;SDS011;17254;50.976;7.034;2023-04-16T00:32:08;52.13;;;28.20;;
30458;SDS011;17254;50.976;7.034;2023-04-16T00:32:15;52.48;;;28.82;;
30458;SDS011;17254;50.976;7.034;2023-04-16T00:32:21;50.40;;;27.23;;
30458;SDS011;17254;50.976;7.034;2023-04-16T00:32:27;46.90;;;25.77;;
30458;SDS011;17254;50.976;7.034;2023-04-16T00:32:32;47.00;;;25.40;;
30458;SDS011;17254;50.976;7.034;2023-04-16T00:32:38;46.45;;;25.17;;
30458;SDS011;17254;50.976;7.034;2023-04-16T00:32:44;46.25;;;25.27;;
30458;SDS011;17254;50.976;7.034;2023-04-16T00:32:50;48.13;;;26.73;;
30458;SDS011;17254;50.976;7.034;2023-04-16T00:32:56;51.55;;;28.40;;
30458;SDS011;17254;50.976;7.034;2023-04-16T00:33:02;50.67;;;28.60;;
30458;SDS011;17254;50.976;7.034;2023-04-16T00:33:08;53.20;;;29.24;;
30458;SDS011;17254;50.976;7.034;2023-04-16T00:33:14;55.28;;;29.35;;
30458;SDS011;17254;50.976;7.034;2023-04-16T00:33:21;54.22;;;28.88;;
30458;SDS011;17254;50.976;7.034;2023-04-16T00:33:27;53.36;;;29.16;;
30458;SDS011;17254;50.976;7.034;2023-04-16T00:33:34;54.50;;;29.57;;
30458;SDS011;17254;50.976;7.034;2023-04-16T00:33:40;54.25;;;29.90;;
30458;SDS011;17254;50.976;7.034;2023-04-16T00:33:46;54.80;;;30.53;;
30458;SDS011;17254;50.976;7.034;2023-04-16T00:33:52;55.25;;;31.20;;
30458;SDS011;17254;50.976;7.034;2023-04-16T00:33:58;55.17;;;30.97;;
30458;SDS011;17254;50.976;7.034;2023-04-16T00:34:05;54.38;;;30.50;;
30458;SDS011;17254;50.976;7.034;2023-04-16T00:34:10;54.43;;;29.83;;
30458;SDS011;17254;50.976;7.034;2023-04-16T00:34:16;53.18;;;28.50;;
30458;SDS011;17254;50.976;7.034;2023-04-16T00:34:22;51.93;;;26.80;;
30458;SDS011;17254;50.976;7.034;2023-04-16T00:34:28;52.22;;;26.83;;
30458;SDS011;17254;50.976;7.034;2023-04-16T00:34:34;52.92;;;26.83;;
30458;SDS011;17254;50.976;7.034;2023-04-16T00:34:40;51.97;;;26.95;;
30458;SDS011;17254;50.976;7.034;2023-04-16T00:34:46;53.13;;;28.00;;
30458;SDS011;17254;50.976;7.034;2023-04-16T00:34:52;55.88;;;29.52;;
30458;SDS011;17254;50.976;7.034;2023-04-16T00:34:58;55.23;;;30.10;;
30458;SDS011;17254;50.976;7.034;2023-04-16T00:35:04;54.05;;;30.00;;
30458;SDS011;17254;50.976;7.034;2023-04-16T00:35:12;53.67;;;29.92;;
30458;SDS011;17254;50.976;7.034;2023-04-16T00:35:18;52.80;;;28.98;;
30458;SDS011;17254;50.976;7.034;2023-04-16T00:35:24;51.30;;;28.00;;
30458;SDS011;17254;50.976;7.034;2023-04-16T00:35:30;52.55;;;27.98;;
30458;SDS011;17254;50.976;7.034;2023-04-16T00:35:36;53.17;;;27.63;;
30458;SDS011;17254;50.976;7.034;2023-04-16T00:35:43;51.70;;;27.73;;
30458;SDS011;17254;50.976;7.034;2023-04-16T00:35:49;50.82;;;28.40;;